sensor_id;sensor_type;location;lat;lon;timestamp;P1;durP1;ratioP1;P2;durP2;ratioP2
9449;SDS011;4763;48.370;10.874;2023-04-01T00:00:05;1.13;;;0.40;;
9449;SDS011;4763;48.370;10.874;2023-04-01T00:02:53;1.10;;;1.00;;
9449;SDS011;4763;48.370;10.874;2023-04-01T00:05:40;0.97;;;0.60;;
9449;SDS011;4763;48.370;10.874;2023-04-01T00:08:28;2.07;;;0.80;;
9449;SDS011;4763;48.370;10.874;2023-04-01T00:11:17;0.67;;;0.50;;
9449;SDS011;4763;48.370;10.874;2023-04-01T00:14:06;8.23;;;0.97;;
9449;SDS011;4763;48.370;10.874;2023-04-01T00:16:54;1.10;;;0.50;;
9449;SDS011;4763;48.370;10.874;2023-04-01T00:19:41;5.10;;;1.27;;
9449;SDS011;4763;48.370;10.874;2023-04-01T00:22:28;1.60;;;0.63;;
9449;SDS011;4763;48.370;10.874;2023-04-01T00:25:15;0.73;;;0.50;;
9449;SDS011;4763;48.370;10.874;2023-04-01T00:28:04;0.97;;;0.90;;
9449;SDS011;4763;48.370;10.874;2023-04-01T00:30:51;4.10;;;0.70;;
9449;SDS011;4763;48.370;10.874;2023-04-01T00:33:38;1.80;;;0.80;;
9449;SDS011;4763;48.370;10.874;2023-04-01T00:36:26;3.07;;;0.70;;
9449;SDS011;4763;48.370;10.874;2023-04-01T00:39:13;3.47;;;1.10;;
9449;SDS011;4763;48.370;10.874;2023-04-01T00:42:00;0.63;;;0.60;;
9449;SDS011;4763;48.370;10.874;2023-04-01T00:44:51;3.67;;;0.80;;
9449;SDS011;4763;48.370;10.874;2023-04-01T00:47:40;4.10;;;1.00;;
9449;SDS011;4763;48.370;10.874;2023-04-01T00:50:27;2.73;;;0.80;;
9449;SDS011;4763;48.370;10.874;2023-04-01T00:53:16;1.70;;;0.70;;
9449;SDS011;4763;48.370;10.874;2023-04-01T00:56:07;3.50;;;0.83;;
9449;SDS011;4763;48.370;10.874;2023-04-01T00:58:58;1.00;;;0.50;;
9449;SDS011;4763;48.370;10.874;2023-04-01T01:01:50;0.73;;;0.53;;
9449;SDS011;4763;48.370;10.874;2023-04-01T01:04:38;1.60;;;0.77;;
9449;SDS011;4763;48.370;10.874;2023-04-01T01:07:26;0.77;;;0.63;;
9449;SDS011;4763;48.370;10.874;2023-04-01T01:10:23;2.20;;;0.60;;
9449;SDS011;4763;48.370;10.874;2023-04-01T01:13:17;1.07;;;0.77;;
9449;SDS011;4763;48.370;10.874;2023-04-01T01:16:09;1.60;;;0.50;;
9449;SDS011;4763;48.370;10.874;2023-04-01T01:19:06;0.50;;;0.43;;
9449;SDS011;4763;48.370;10.874;2023-04-01T01:22:06;2.10;;;1.03;;
9449;SDS011;4763;48.370;10.874;2023-04-01T01:25:14;2.20;;;0.70;;
9449;SDS011;4763;48.370;10.874;2023-04-01T01:28:16;1.23;;;0.70;;
9449;SDS011;4763;48.370;10.874;2023-04-01T01:31:15;3.70;;;0.80;;
9449;SDS011;4763;48.370;10.874;2023-04-01T01:34:10;5.80;;;0.90;;
9449;SDS011;4763;48.370;10.874;2023-04-01T01:37:05;0.50;;;0.50;;
9449;SDS011;4763;48.370;10.874;2023-04-01T01:39:58;1.20;;;0.50;;
9449;SDS011;4763;48.370;10.874;2023-04-01T01:42:48;6.50;;;0.73;;
9449;SDS011;4763;48.370;10.874;2023-04-01T01:45:39;2.33;;;0.70;;
9449;SDS011;4763;48.370;10.874;2023-04-01T01:48:31;0.77;;;0.47;;
9449;SDS011;4763;48.370;10.874;2023-04-01T01:51:21;1.23;;;0.70;;
9449;SDS011;4763;48.370;10.874;2023-04-01T01:54:12;1.10;;;0.50;;
9449;SDS011;4763;48.370;10.874;2023-04-01T01:57:01;2.42;;;0.60;;
9449;SDS011;4763;48.370;10.874;2023-04-01T01:59:52;2.40;;;0.70;;
9449;SDS011;4763;48.370;10.874;2023-04-01T02:02:44;1.60;;;0.67;;
9449;SDS011;4763;48.370;10.874;2023-04-01T02:05:32;1.73;;;0.60;;
9449;SDS011;4763;48.370;10.874;2023-04-01T02:08:20;1.27;;;0.40;;
9449;SDS011;4763;48.370;10.874;2023-04-01T02:11:13;1.80;;;0.63;;
9449;SDS011;4763;48.370;10.874;2023-04-01T02:14:04;2.73;;;0.80;;
9449;SDS011;4763;48.370;10.874;2023-04-01T02:16:57;0.50;;;0.43;;
9449;SDS011;4763;48.370;10.874;2023-04-01T02:19:50;1.63;;;0.63;;
9449;SDS011;4763;48.370;10.874;2023-04-01T02:22:40;2.93;;;0.80;;
9449;SDS011;4763;48.370;10.874;2023-04-01T02:25:33;1.23;;;0.63;;
9449;SDS011;4763;48.370;10.874;2023-04-01T02:28:23;0.70;;;0.67;;
9449;SDS011;4763;48.370;10.874;2023-04-01T02:31:12;1.20;;;0.60;;
9449;SDS011;4763;48.370;10.874;2023-04-01T02:34:00;0.97;;;0.67;;
9449;SDS011;4763;48.370;10.874;2023-04-01T02:36:49;1.08;;;0.50;;
9449;SDS011;4763;48.370;10.874;2023-04-01T02:39:38;1.07;;;0.60;;
9449;SDS011;4763;48.370;10.874;2023-04-01T02:42:25;2.10;;;0.63;;
9449;SDS011;4763;48.370;10.874;2023-04-01T02:45:14;1.70;;;0.43;;
9449;SDS011;4763;48.370;10.874;2023-04-01T02:48:01;2.80;;;0.50;;
9449;SDS011;4763;48.370;10.874;2023-04-01T02:50:48;0.40;;;0.40;;
9449;SDS011;4763;48.370;10.874;2023-04-01T02:53:35;1.80;;;0.60;;
9449;SDS011;4763;48.370;10.874;2023-04-01T02:56:22;1.53;;;0.60;;
9449;SDS011;4763;48.370;10.874;2023-04-01T02:59:11;0.37;;;0.37;;
9449;SDS011;4763;48.370;10.874;2023-04-01T03:01:59;0.60;;;0.60;;
9449;SDS011;4763;48.370;10.874;2023-04-01T03:04:46;0.60;;;0.60;;
9449;SDS011;4763;48.370;10.874;2023-04-01T03:07:34;0.47;;;0.27;;
9449;SDS011;4763;48.370;10.874;2023-04-01T03:10:21;2.17;;;0.60;;
9449;SDS011;4763;48.370;10.874;2023-04-01T03:13:08;2.07;;;0.33;;
9449;SDS011;4763;48.370;10.874;2023-04-01T03:15:55;0.67;;;0.40;;
9449;SDS011;4763;48.370;10.874;2023-04-01T03:18:43;2.37;;;0.83;;
9449;SDS011;4763;48.370;10.874;2023-04-01T03:21:30;0.67;;;0.33;;
9449;SDS011;4763;48.370;10.874;2023-04-01T03:24:18;1.60;;;0.40;;
9449;SDS011;4763;48.370;10.874;2023-04-01T03:27:05;0.50;;;0.40;;
9449;SDS011;4763;48.370;10.874;2023-04-01T03:29:52;0.30;;;0.30;;
9449;SDS011;4763;48.370;10.874;2023-04-01T03:32:39;0.30;;;0.30;;
9449;SDS011;4763;48.370;10.874;2023-04-01T03:35:27;0.30;;;0.30;;
9449;SDS011;4763;48.370;10.874;2023-04-01T03:38:15;0.30;;;0.30;;
9449;SDS011;4763;48.370;10.874;2023-04-01T03:41:02;0.30;;;0.30;;
9449;SDS011;4763;48.370;10.874;2023-04-01T03:43:49;0.30;;;0.30;;
9449;SDS011;4763;48.370;10.874;2023-04-01T03:46:36;0.30;;;0.30;;
9449;SDS011;4763;48.370;10.874;2023-04-01T03:49:23;0.40;;;0.40;;
9449;SDS011;4763;48.370;10.874;2023-04-01T03:52:11;0.80;;;0.37;;
9449;SDS011;4763;48.370;10.874;2023-04-01T03:54:59;0.30;;;0.30;;
9449;SDS011;4763;48.370;10.874;2023-04-01T03:57:46;0.30;;;0.30;;
9449;SDS011;4763;48.370;10.874;2023-04-01T04:00:34;0.40;;;0.40;;
9449;SDS011;4763;48.370;10.874;2023-04-01T04:03:21;0.73;;;0.37;;
9449;SDS011;4763;48.370;10.874;2023-04-01T04:06:10;0.40;;;0.40;;
9449;SDS011;4763;48.370;10.874;2023-04-01T04:08:59;0.20;;;0.20;;
9449;SDS011;4763;48.370;10.874;2023-04-01T04:11:46;0.40;;;0.40;;
9449;SDS011;4763;48.370;10.874;2023-04-01T04:14:33;1.37;;;0.63;;
9449;SDS011;4763;48.370;10.874;2023-04-01T04:17:20;0.73;;;0.40;;
9449;SDS011;4763;48.370;10.874;2023-04-01T04:20:07;4.00;;;0.50;;
9449;SDS011;4763;48.370;10.874;2023-04-01T04:22:55;2.07;;;0.47;;
9449;SDS011;4763;48.370;10.874;2023-04-01T04:25:53;0.30;;;0.30;;
9449;SDS011;4763;48.370;10.874;2023-04-01T04:28:41;0.50;;;0.43;;
9449;SDS011;4763;48.370;10.874;2023-04-01T04:31:28;0.40;;;0.40;;
9449;SDS011;4763;48.370;10.874;2023-04-01T04:34:15;0.40;;;0.40;;
9449;SDS011;4763;48.370;10.874;2023-04-01T04:37:03;0.40;;;0.40;;
9449;SDS011;4763;48.370;10.874;2023-04-01T04:39:50;0.40;;;0.40;;
9449;SDS011;4763;48.370;10.874;2023-04-01T04:42:39;0.93;;;0.50;;
9449;SDS011;4763;48.370;10.874;2023-04-01T04:45:26;1.87;;;0.80;;
9449;SDS011;4763;48.370;10.874;2023-04-01T04:48:14;2.40;;;0.63;;
9449;SDS011;4763;48.370;10.874;2023-04-01T04:51:03;2.00;;;0.60;;
9449;SDS011;4763;48.370;10.874;2023-04-01T04:53:51;0.87;;;0.50;;
9449;SDS011;4763;48.370;10.874;2023-04-01T04:56:38;1.30;;;0.50;;
9449;SDS011;4763;48.370;10.874;2023-04-01T04:59:26;0.47;;;0.47;;
9449;SDS011;4763;48.370;10.874;2023-04-01T05:02:13;0.60;;;0.60;;
9449;SDS011;4763;48.370;10.874;2023-04-01T05:05:00;0.43;;;0.43;;
9449;SDS011;4763;48.370;10.874;2023-04-01T05:07:48;2.03;;;0.50;;
9449;SDS011;4763;48.370;10.874;2023-04-01T05:10:35;1.53;;;0.77;;
9449;SDS011;4763;48.370;10.874;2023-04-01T05:13:22;0.90;;;0.77;;
9449;SDS011;4763;48.370;10.874;2023-04-01T05:16:11;0.50;;;0.50;;
9449;SDS011;4763;48.370;10.874;2023-04-01T05:18:59;1.00;;;0.50;;
9449;SDS011;4763;48.370;10.874;2023-04-01T05:21:47;1.60;;;1.13;;
9449;SDS011;4763;48.370;10.874;2023-04-01T05:24:34;0.40;;;0.40;;
9449;SDS011;4763;48.370;10.874;2023-04-01T05:27:21;0.80;;;0.57;;
9449;SDS011;4763;48.370;10.874;2023-04-01T05:30:08;1.40;;;0.50;;
9449;SDS011;4763;48.370;10.874;2023-04-01T05:32:57;1.13;;;0.40;;
9449;SDS011;4763;48.370;10.874;2023-04-01T05:35:44;0.80;;;0.77;;
9449;SDS011;4763;48.370;10.874;2023-04-01T05:38:31;2.67;;;0.73;;
9449;SDS011;4763;48.370;10.874;2023-04-01T05:41:18;1.10;;;0.60;;
9449;SDS011;4763;48.370;10.874;2023-04-01T05:44:05;0.60;;;0.53;;
9449;SDS011;4763;48.370;10.874;2023-04-01T05:46:52;1.10;;;0.67;;
9449;SDS011;4763;48.370;10.874;2023-04-01T05:49:41;0.80;;;0.70;;
9449;SDS011;4763;48.370;10.874;2023-04-01T05:52:28;3.37;;;2.07;;
9449;SDS011;4763;48.370;10.874;2023-04-01T05:55:15;1.57;;;1.10;;
9449;SDS011;4763;48.370;10.874;2023-04-01T05:58:02;1.60;;;1.50;;
9449;SDS011;4763;48.370;10.874;2023-04-01T06:00:49;4.00;;;1.07;;
9449;SDS011;4763;48.370;10.874;2023-04-01T06:03:36;1.47;;;1.37;;
9449;SDS011;4763;48.370;10.874;2023-04-01T06:06:26;7.60;;;4.23;;
9449;SDS011;4763;48.370;10.874;2023-04-01T06:09:15;1.97;;;1.60;;
9449;SDS011;4763;48.370;10.874;2023-04-01T06:12:15;3.60;;;1.07;;
9449;SDS011;4763;48.370;10.874;2023-04-01T06:15:13;2.70;;;1.23;;
9449;SDS011;4763;48.370;10.874;2023-04-01T06:21:42;2.10;;;0.90;;
9449;SDS011;4763;48.370;10.874;2023-04-01T06:25:01;4.40;;;0.87;;
9449;SDS011;4763;48.370;10.874;2023-04-01T06:28:02;2.67;;;0.70;;
9449;SDS011;4763;48.370;10.874;2023-04-01T06:31:02;1.90;;;0.67;;
9449;SDS011;4763;48.370;10.874;2023-04-01T06:34:00;1.90;;;0.90;;
9449;SDS011;4763;48.370;10.874;2023-04-01T06:37:09;1.90;;;0.60;;
9449;SDS011;4763;48.370;10.874;2023-04-01T06:40:15;2.47;;;0.60;;
9449;SDS011;4763;48.370;10.874;2023-04-01T06:43:14;1.50;;;0.70;;
9449;SDS011;4763;48.370;10.874;2023-04-01T06:46:09;2.73;;;0.80;;
9449;SDS011;4763;48.370;10.874;2023-04-01T06:49:07;2.00;;;0.87;;
9449;SDS011;4763;48.370;10.874;2023-04-01T06:52:13;2.53;;;1.03;;
9449;SDS011;4763;48.370;10.874;2023-04-01T06:55:15;3.53;;;0.60;;
9449;SDS011;4763;48.370;10.874;2023-04-01T06:58:11;1.13;;;0.50;;
9449;SDS011;4763;48.370;10.874;2023-04-01T07:01:06;1.63;;;0.70;;
9449;SDS011;4763;48.370;10.874;2023-04-01T07:03:57;1.83;;;1.10;;
9449;SDS011;4763;48.370;10.874;2023-04-01T07:06:48;0.97;;;0.70;;
9449;SDS011;4763;48.370;10.874;2023-04-01T07:09:41;2.60;;;0.53;;
9449;SDS011;4763;48.370;10.874;2023-04-01T07:12:36;2.50;;;0.60;;
9449;SDS011;4763;48.370;10.874;2023-04-01T07:15:30;0.53;;;0.40;;
9449;SDS011;4763;48.370;10.874;2023-04-01T07:18:25;0.77;;;0.40;;
9449;SDS011;4763;48.370;10.874;2023-04-01T07:21:28;1.30;;;0.50;;
9449;SDS011;4763;48.370;10.874;2023-04-01T07:24:21;0.83;;;0.40;;
9449;SDS011;4763;48.370;10.874;2023-04-01T07:27:13;1.67;;;0.57;;
9449;SDS011;4763;48.370;10.874;2023-04-01T07:30:00;1.33;;;0.77;;
9449;SDS011;4763;48.370;10.874;2023-04-01T07:32:50;2.00;;;0.90;;
9449;SDS011;4763;48.370;10.874;2023-04-01T07:35:43;0.73;;;0.60;;
9449;SDS011;4763;48.370;10.874;2023-04-01T07:38:38;1.27;;;0.63;;
9449;SDS011;4763;48.370;10.874;2023-04-01T07:41:33;0.73;;;0.40;;
9449;SDS011;4763;48.370;10.874;2023-04-01T07:44:31;1.57;;;0.70;;
9449;SDS011;4763;48.370;10.874;2023-04-01T07:47:29;7.30;;;1.20;;
9449;SDS011;4763;48.370;10.874;2023-04-01T07:50:27;1.27;;;0.87;;
9449;SDS011;4763;48.370;10.874;2023-04-01T07:53:18;2.23;;;1.00;;
9449;SDS011;4763;48.370;10.874;2023-04-01T07:56:11;2.73;;;0.80;;
9449;SDS011;4763;48.370;10.874;2023-04-01T07:59:04;1.43;;;0.70;;
9449;SDS011;4763;48.370;10.874;2023-04-01T08:01:59;1.93;;;0.63;;
9449;SDS011;4763;48.370;10.874;2023-04-01T08:05:00;2.60;;;0.60;;
9449;SDS011;4763;48.370;10.874;2023-04-01T08:07:57;0.53;;;0.43;;
9449;SDS011;4763;48.370;10.874;2023-04-01T08:10:54;0.63;;;0.40;;
9449;SDS011;4763;48.370;10.874;2023-04-01T08:13:51;11.40;;;0.60;;
9449;SDS011;4763;48.370;10.874;2023-04-01T08:16:47;3.00;;;0.70;;
9449;SDS011;4763;48.370;10.874;2023-04-01T08:19:47;2.30;;;0.43;;
9449;SDS011;4763;48.370;10.874;2023-04-01T08:22:43;1.07;;;0.60;;
9449;SDS011;4763;48.370;10.874;2023-04-01T08:25:35;2.73;;;0.53;;
9449;SDS011;4763;48.370;10.874;2023-04-01T08:28:27;2.37;;;0.60;;
9449;SDS011;4763;48.370;10.874;2023-04-01T08:31:19;1.03;;;0.40;;
9449;SDS011;4763;48.370;10.874;2023-04-01T08:34:15;0.60;;;0.60;;
9449;SDS011;4763;48.370;10.874;2023-04-01T08:37:10;0.57;;;0.40;;
9449;SDS011;4763;48.370;10.874;2023-04-01T08:40:08;2.43;;;0.43;;
9449;SDS011;4763;48.370;10.874;2023-04-01T08:43:15;1.57;;;0.60;;
9449;SDS011;4763;48.370;10.874;2023-04-01T08:46:18;0.90;;;0.50;;
9449;SDS011;4763;48.370;10.874;2023-04-01T08:49:21;2.20;;;0.50;;
9449;SDS011;4763;48.370;10.874;2023-04-01T08:52:29;0.50;;;0.50;;
9449;SDS011;4763;48.370;10.874;2023-04-01T08:55:30;0.63;;;0.40;;
9449;SDS011;4763;48.370;10.874;2023-04-01T09:01:55;9.20;;;4.90;;
9449;SDS011;4763;48.370;10.874;2023-04-01T09:05:02;2.83;;;2.10;;
9449;SDS011;4763;48.370;10.874;2023-04-01T09:08:10;1.27;;;0.90;;
9449;SDS011;4763;48.370;10.874;2023-04-01T09:11:12;1.83;;;1.40;;
9449;SDS011;4763;48.370;10.874;2023-04-01T09:14:12;0.73;;;0.70;;
9449;SDS011;4763;48.370;10.874;2023-04-01T09:17:18;1.17;;;0.93;;
9449;SDS011;4763;48.370;10.874;2023-04-01T09:20:29;1.57;;;0.60;;
9449;SDS011;4763;48.370;10.874;2023-04-01T09:23:47;0.40;;;0.40;;
9449;SDS011;4763;48.370;10.874;2023-04-01T09:27:02;1.63;;;1.33;;
9449;SDS011;4763;48.370;10.874;2023-04-01T09:29:55;0.40;;;0.40;;
9449;SDS011;4763;48.370;10.874;2023-04-01T09:33:10;0.50;;;0.50;;
9449;SDS011;4763;48.370;10.874;2023-04-01T09:36:18;0.40;;;0.30;;
9449;SDS011;4763;48.370;10.874;2023-04-01T09:39:22;0.60;;;0.50;;
9449;SDS011;4763;48.370;10.874;2023-04-01T09:42:40;0.47;;;0.47;;
9449;SDS011;4763;48.370;10.874;2023-04-01T09:45:33;0.40;;;0.30;;
9449;SDS011;4763;48.370;10.874;2023-04-01T09:48:43;2.83;;;0.47;;
9449;SDS011;4763;48.370;10.874;2023-04-01T09:51:45;0.50;;;0.50;;
9449;SDS011;4763;48.370;10.874;2023-04-01T09:54:49;1.23;;;0.53;;
9449;SDS011;4763;48.370;10.874;2023-04-01T09:57:56;0.50;;;0.50;;
9449;SDS011;4763;48.370;10.874;2023-04-01T10:11:06;1.00;;;0.30;;
9449;SDS011;4763;48.370;10.874;2023-04-01T10:14:17;0.50;;;0.30;;
9449;SDS011;4763;48.370;10.874;2023-04-01T10:17:40;2.90;;;0.70;;
9449;SDS011;4763;48.370;10.874;2023-04-01T10:20:52;5.40;;;2.93;;
9449;SDS011;4763;48.370;10.874;2023-04-01T10:24:14;21.50;;;11.93;;
9449;SDS011;4763;48.370;10.874;2023-04-01T10:27:24;2.17;;;1.60;;
9449;SDS011;4763;48.370;10.874;2023-04-01T10:33:56;0.90;;;0.87;;
9449;SDS011;4763;48.370;10.874;2023-04-01T10:37:00;1.03;;;0.77;;
9449;SDS011;4763;48.370;10.874;2023-04-01T10:40:13;1.50;;;0.80;;
9449;SDS011;4763;48.370;10.874;2023-04-01T10:46:52;2.63;;;1.10;;
9449;SDS011;4763;48.370;10.874;2023-04-01T10:50:07;1.67;;;1.40;;
9449;SDS011;4763;48.370;10.874;2023-04-01T10:56:34;1.90;;;1.33;;
9449;SDS011;4763;48.370;10.874;2023-04-01T11:03:26;3.03;;;1.47;;
9449;SDS011;4763;48.370;10.874;2023-04-01T11:07:04;1.90;;;1.23;;
9449;SDS011;4763;48.370;10.874;2023-04-01T11:17:13;2.30;;;1.43;;
9449;SDS011;4763;48.370;10.874;2023-04-01T11:20:24;1.53;;;1.27;;
9449;SDS011;4763;48.370;10.874;2023-04-01T11:23:50;3.80;;;0.87;;
9449;SDS011;4763;48.370;10.874;2023-04-01T11:26:43;1.57;;;1.10;;
9449;SDS011;4763;48.370;10.874;2023-04-01T11:29:45;1.30;;;0.60;;
9449;SDS011;4763;48.370;10.874;2023-04-01T11:32:57;0.40;;;0.40;;
9449;SDS011;4763;48.370;10.874;2023-04-01T11:36:03;0.67;;;0.57;;
9449;SDS011;4763;48.370;10.874;2023-04-01T11:39:04;0.33;;;0.33;;
9449;SDS011;4763;48.370;10.874;2023-04-01T11:42:10;0.33;;;0.33;;
9449;SDS011;4763;48.370;10.874;2023-04-01T11:45:08;2.33;;;0.70;;
9449;SDS011;4763;48.370;10.874;2023-04-01T11:51:38;0.50;;;0.50;;
9449;SDS011;4763;48.370;10.874;2023-04-01T11:54:52;1.33;;;0.90;;
9449;SDS011;4763;48.370;10.874;2023-04-01T11:57:57;0.77;;;0.40;;
9449;SDS011;4763;48.370;10.874;2023-04-01T12:01:05;0.60;;;0.50;;
9449;SDS011;4763;48.370;10.874;2023-04-01T12:04:11;0.53;;;0.53;;
9449;SDS011;4763;48.370;10.874;2023-04-01T12:07:17;0.83;;;0.57;;
9449;SDS011;4763;48.370;10.874;2023-04-01T12:10:12;0.80;;;0.70;;
9449;SDS011;4763;48.370;10.874;2023-04-01T12:13:04;3.33;;;0.60;;
9449;SDS011;4763;48.370;10.874;2023-04-01T12:16:07;1.07;;;0.60;;
9449;SDS011;4763;48.370;10.874;2023-04-01T12:19:07;0.70;;;0.40;;
9449;SDS011;4763;48.370;10.874;2023-04-01T12:22:06;4.40;;;0.60;;
9449;SDS011;4763;48.370;10.874;2023-04-01T12:25:27;0.40;;;0.40;;
9449;SDS011;4763;48.370;10.874;2023-04-01T12:28:48;1.03;;;0.40;;
9449;SDS011;4763;48.370;10.874;2023-04-01T12:31:47;0.30;;;0.30;;
9449;SDS011;4763;48.370;10.874;2023-04-01T12:34:49;2.73;;;0.43;;
9449;SDS011;4763;48.370;10.874;2023-04-01T12:37:52;0.37;;;0.37;;
9449;SDS011;4763;48.370;10.874;2023-04-01T12:41:04;2.77;;;1.93;;
9449;SDS011;4763;48.370;10.874;2023-04-01T12:44:08;0.90;;;0.77;;
9449;SDS011;4763;48.370;10.874;2023-04-01T12:47:16;0.20;;;0.20;;
9449;SDS011;4763;48.370;10.874;2023-04-01T12:50:19;0.77;;;0.53;;
9449;SDS011;4763;48.370;10.874;2023-04-01T12:56:32;0.73;;;0.50;;
9449;SDS011;4763;48.370;10.874;2023-04-01T12:59:42;0.43;;;0.43;;
9449;SDS011;4763;48.370;10.874;2023-04-01T13:02:45;0.60;;;0.50;;
9449;SDS011;4763;48.370;10.874;2023-04-01T13:05:56;0.60;;;0.60;;
9449;SDS011;4763;48.370;10.874;2023-04-01T13:09:10;0.30;;;0.30;;
9449;SDS011;4763;48.370;10.874;2023-04-01T13:12:13;1.00;;;0.30;;
9449;SDS011;4763;48.370;10.874;2023-04-01T13:15:28;2.00;;;0.50;;
9449;SDS011;4763;48.370;10.874;2023-04-01T13:18:26;0.37;;;0.37;;
9449;SDS011;4763;48.370;10.874;2023-04-01T13:21:19;0.73;;;0.40;;
9449;SDS011;4763;48.370;10.874;2023-04-01T13:24:20;0.30;;;0.30;;
9449;SDS011;4763;48.370;10.874;2023-04-01T13:27:14;1.17;;;0.60;;
9449;SDS011;4763;48.370;10.874;2023-04-01T13:30:16;0.50;;;0.50;;
9449;SDS011;4763;48.370;10.874;2023-04-01T13:33:14;0.70;;;0.60;;
9449;SDS011;4763;48.370;10.874;2023-04-01T13:36:11;0.47;;;0.40;;
9449;SDS011;4763;48.370;10.874;2023-04-01T13:39:19;0.40;;;0.40;;
9449;SDS011;4763;48.370;10.874;2023-04-01T13:42:23;2.53;;;0.63;;
9449;SDS011;4763;48.370;10.874;2023-04-01T13:45:14;1.50;;;0.50;;
9449;SDS011;4763;48.370;10.874;2023-04-01T13:48:11;0.60;;;0.60;;
9449;SDS011;4763;48.370;10.874;2023-04-01T13:54:43;1.70;;;0.60;;
9449;SDS011;4763;48.370;10.874;2023-04-01T14:01:09;0.50;;;0.50;;
9449;SDS011;4763;48.370;10.874;2023-04-01T14:04:11;0.60;;;0.60;;
9449;SDS011;4763;48.370;10.874;2023-04-01T14:07:29;1.43;;;0.53;;
9449;SDS011;4763;48.370;10.874;2023-04-01T14:10:30;0.40;;;0.40;;
9449;SDS011;4763;48.370;10.874;2023-04-01T14:13:23;0.77;;;0.43;;
9449;SDS011;4763;48.370;10.874;2023-04-01T14:16:25;0.40;;;0.40;;
9449;SDS011;4763;48.370;10.874;2023-04-01T14:19:41;0.60;;;0.50;;
9449;SDS011;4763;48.370;10.874;2023-04-01T14:22:46;0.37;;;0.37;;
9449;SDS011;4763;48.370;10.874;2023-04-01T14:25:56;0.40;;;0.40;;
9449;SDS011;4763;48.370;10.874;2023-04-01T14:28:56;2.03;;;0.70;;
9449;SDS011;4763;48.370;10.874;2023-04-01T14:31:54;1.13;;;0.60;;
9449;SDS011;4763;48.370;10.874;2023-04-01T14:34:53;0.40;;;0.40;;
9449;SDS011;4763;48.370;10.874;2023-04-01T14:38:02;0.70;;;0.47;;
9449;SDS011;4763;48.370;10.874;2023-04-01T14:41:06;2.33;;;0.80;;
9449;SDS011;4763;48.370;10.874;2023-04-01T14:44:10;0.97;;;0.70;;
9449;SDS011;4763;48.370;10.874;2023-04-01T14:47:24;0.40;;;0.40;;
9449;SDS011;4763;48.370;10.874;2023-04-01T14:50:19;0.30;;;0.30;;
9449;SDS011;4763;48.370;10.874;2023-04-01T14:53:11;0.53;;;0.53;;
9449;SDS011;4763;48.370;10.874;2023-04-01T14:56:02;0.87;;;0.70;;
9449;SDS011;4763;48.370;10.874;2023-04-01T14:58:51;0.40;;;0.40;;
9449;SDS011;4763;48.370;10.874;2023-04-01T15:01:47;0.40;;;0.40;;
9449;SDS011;4763;48.370;10.874;2023-04-01T15:04:46;2.20;;;0.50;;
9449;SDS011;4763;48.370;10.874;2023-04-01T15:07:50;0.57;;;0.50;;
9449;SDS011;4763;48.370;10.874;2023-04-01T15:10:57;0.40;;;0.40;;
9449;SDS011;4763;48.370;10.874;2023-04-01T15:14:19;0.50;;;0.43;;
9449;SDS011;4763;48.370;10.874;2023-04-01T15:17:28;0.50;;;0.50;;
9449;SDS011;4763;48.370;10.874;2023-04-01T15:20:33;0.57;;;0.43;;
9449;SDS011;4763;48.370;10.874;2023-04-01T15:23:34;0.30;;;0.30;;
9449;SDS011;4763;48.370;10.874;2023-04-01T15:30:04;0.40;;;0.40;;
9449;SDS011;4763;48.370;10.874;2023-04-01T15:33:09;0.40;;;0.40;;
9449;SDS011;4763;48.370;10.874;2023-04-01T15:36:20;1.03;;;0.40;;
9449;SDS011;4763;48.370;10.874;2023-04-01T15:39:19;2.00;;;0.50;;
9449;SDS011;4763;48.370;10.874;2023-04-01T15:42:19;0.47;;;0.43;;
9449;SDS011;4763;48.370;10.874;2023-04-01T15:45:22;0.47;;;0.40;;
9449;SDS011;4763;48.370;10.874;2023-04-01T15:48:23;0.70;;;0.60;;
9449;SDS011;4763;48.370;10.874;2023-04-01T15:51:28;0.47;;;0.47;;
9449;SDS011;4763;48.370;10.874;2023-04-01T15:54:32;0.50;;;0.50;;
9449;SDS011;4763;48.370;10.874;2023-04-01T15:57:37;1.00;;;0.47;;
9449;SDS011;4763;48.370;10.874;2023-04-01T16:00:34;1.20;;;0.60;;
9449;SDS011;4763;48.370;10.874;2023-04-01T16:03:33;2.00;;;1.00;;
9449;SDS011;4763;48.370;10.874;2023-04-01T16:06:39;0.30;;;0.30;;
9449;SDS011;4763;48.370;10.874;2023-04-01T16:09:48;0.50;;;0.40;;
9449;SDS011;4763;48.370;10.874;2023-04-01T16:12:49;0.57;;;0.57;;
9449;SDS011;4763;48.370;10.874;2023-04-01T16:15:52;0.77;;;0.63;;
9449;SDS011;4763;48.370;10.874;2023-04-01T16:18:55;0.40;;;0.40;;
9449;SDS011;4763;48.370;10.874;2023-04-01T16:21:57;3.00;;;0.87;;
9449;SDS011;4763;48.370;10.874;2023-04-01T16:24:52;0.90;;;0.70;;
9449;SDS011;4763;48.370;10.874;2023-04-01T16:27:46;1.13;;;0.60;;
9449;SDS011;4763;48.370;10.874;2023-04-01T16:30:40;3.63;;;0.70;;
9449;SDS011;4763;48.370;10.874;2023-04-01T16:33:40;0.43;;;0.43;;
9449;SDS011;4763;48.370;10.874;2023-04-01T16:36:34;0.50;;;0.50;;
9449;SDS011;4763;48.370;10.874;2023-04-01T16:39:28;1.37;;;0.50;;
9449;SDS011;4763;48.370;10.874;2023-04-01T16:42:26;0.67;;;0.67;;
9449;SDS011;4763;48.370;10.874;2023-04-01T16:45:26;1.43;;;0.80;;
9449;SDS011;4763;48.370;10.874;2023-04-01T16:48:20;0.63;;;0.63;;
9449;SDS011;4763;48.370;10.874;2023-04-01T16:51:14;0.77;;;0.77;;
9449;SDS011;4763;48.370;10.874;2023-04-01T16:54:04;2.13;;;0.67;;
9449;SDS011;4763;48.370;10.874;2023-04-01T16:56:54;0.30;;;0.30;;
9449;SDS011;4763;48.370;10.874;2023-04-01T16:59:44;0.67;;;0.60;;
9449;SDS011;4763;48.370;10.874;2023-04-01T17:02:35;0.97;;;0.60;;
9449;SDS011;4763;48.370;10.874;2023-04-01T17:05:33;1.73;;;1.30;;
9449;SDS011;4763;48.370;10.874;2023-04-01T17:08:32;4.93;;;3.17;;
9449;SDS011;4763;48.370;10.874;2023-04-01T17:11:37;1.40;;;1.27;;
9449;SDS011;4763;48.370;10.874;2023-04-01T17:14:30;2.40;;;1.80;;
9449;SDS011;4763;48.370;10.874;2023-04-01T17:17:24;2.87;;;1.90;;
9449;SDS011;4763;48.370;10.874;2023-04-01T17:20:31;2.00;;;1.60;;
9449;SDS011;4763;48.370;10.874;2023-04-01T17:23:26;1.77;;;1.67;;
9449;SDS011;4763;48.370;10.874;2023-04-01T17:26:23;1.40;;;1.30;;
9449;SDS011;4763;48.370;10.874;2023-04-01T17:29:18;1.47;;;1.37;;
9449;SDS011;4763;48.370;10.874;2023-04-01T17:32:12;1.17;;;0.97;;
9449;SDS011;4763;48.370;10.874;2023-04-01T17:35:08;2.53;;;1.80;;
9449;SDS011;4763;48.370;10.874;2023-04-01T17:38:07;8.90;;;5.47;;
9449;SDS011;4763;48.370;10.874;2023-04-01T17:41:06;31.10;;;20.80;;
9449;SDS011;4763;48.370;10.874;2023-04-01T17:44:03;34.07;;;21.80;;
9449;SDS011;4763;48.370;10.874;2023-04-01T17:47:06;4.40;;;3.83;;
9449;SDS011;4763;48.370;10.874;2023-04-01T17:50:17;1.47;;;1.37;;
9449;SDS011;4763;48.370;10.874;2023-04-01T17:53:14;1.57;;;1.40;;
9449;SDS011;4763;48.370;10.874;2023-04-01T17:56:23;1.27;;;0.77;;
9449;SDS011;4763;48.370;10.874;2023-04-01T17:59:20;1.73;;;1.00;;
9449;SDS011;4763;48.370;10.874;2023-04-01T18:02:18;1.00;;;0.90;;
9449;SDS011;4763;48.370;10.874;2023-04-01T18:05:20;1.40;;;0.73;;
9449;SDS011;4763;48.370;10.874;2023-04-01T18:08:17;1.67;;;0.90;;
9449;SDS011;4763;48.370;10.874;2023-04-01T18:11:12;1.43;;;1.03;;
9449;SDS011;4763;48.370;10.874;2023-04-01T18:14:17;2.60;;;0.90;;
9449;SDS011;4763;48.370;10.874;2023-04-01T18:17:18;1.47;;;0.90;;
9449;SDS011;4763;48.370;10.874;2023-04-01T18:20:28;1.53;;;0.90;;
9449;SDS011;4763;48.370;10.874;2023-04-01T18:23:24;0.87;;;0.80;;
9449;SDS011;4763;48.370;10.874;2023-04-01T18:26:18;2.03;;;1.03;;
9449;SDS011;4763;48.370;10.874;2023-04-01T18:29:12;1.00;;;0.80;;
9449;SDS011;4763;48.370;10.874;2023-04-01T18:32:11;1.17;;;1.07;;
9449;SDS011;4763;48.370;10.874;2023-04-01T18:35:13;1.67;;;1.20;;
9449;SDS011;4763;48.370;10.874;2023-04-01T18:38:07;2.57;;;1.70;;
9449;SDS011;4763;48.370;10.874;2023-04-01T18:41:07;2.27;;;1.80;;
9449;SDS011;4763;48.370;10.874;2023-04-01T18:44:07;2.30;;;1.70;;
9449;SDS011;4763;48.370;10.874;2023-04-01T18:47:14;1.73;;;1.40;;
9449;SDS011;4763;48.370;10.874;2023-04-01T18:50:11;1.13;;;1.00;;
9449;SDS011;4763;48.370;10.874;2023-04-01T18:53:09;1.17;;;0.90;;
9449;SDS011;4763;48.370;10.874;2023-04-01T18:56:04;1.53;;;0.90;;